Time;durP1;ratioP1;P1;durP2;ratioP2;P2;SDS_P1;SDS_P2;PMS_P1;PMS_P2;Temp;Humidity;BMP_temperature;BMP_pressure;BME280_temperature;BME280_humidity;BME280_pressure;Samples;Min_cycle;Max_cycle;Signal;HPM_P1;HPM_P2
2021/06/11 00:02:03;;;;;;;8.60;7.80;;;19.40;99.90;;;;;;5051858;28;20489;-81
2021/06/11 00:04:28;;;;;;;9.23;8.23;;;19.40;99.90;;;;;;5040817;28;20792;-80
2021/06/11 00:06:54;;;;;;;9.00;7.60;;;19.30;99.90;;;;;;5049036;28;20448;-81
2021/06/11 00:09:20;;;;;;;8.10;7.50;;;19.20;99.90;;;;;;5050517;28;20426;-80
2021/06/11 00:11:49;;;;;;;9.60;8.30;;;19.10;99.90;;;;;;5029342;28;20200;-80
2021/06/11 00:14:17;;;;;;;8.37;7.57;;;19.10;99.90;;;;;;5035706;28;20644;-80
2021/06/11 00:16:46;;;;;;;9.10;8.20;;;19.00;99.90;;;;;;5028532;28;20529;-81
2021/06/11 00:19:14;;;;;;;9.77;8.07;;;19.00;99.90;;;;;;5034707;28;20448;-80
2021/06/11 00:21:42;;;;;;;9.17;8.27;;;19.00;99.90;;;;;;5040723;28;20439;-81
2021/06/11 00:24:08;;;;;;;8.83;7.93;;;19.00;99.90;;;;;;5017598;28;20434;-81
2021/06/11 00:26:34;;;;;;;10.73;9.00;;;19.00;99.90;;;;;;5033222;28;20493;-80
2021/06/11 00:29:00;;;;;;;8.07;7.37;;;19.00;99.90;;;;;;5039570;28;20458;-81
2021/06/11 00:31:29;;;;;;;8.80;7.47;;;19.10;99.90;;;;;;5032402;28;20431;-81
2021/06/11 00:33:55;;;;;;;7.90;7.20;;;19.10;99.90;;;;;;5051072;28;20820;-81
2021/06/11 00:36:21;;;;;;;8.50;7.80;;;19.00;99.90;;;;;;5035875;28;20471;-81
2021/06/11 00:38:50;;;;;;;9.17;8.27;;;19.00;99.90;;;;;;5051393;28;20864;-81
2021/06/11 00:41:18;;;;;;;9.87;7.90;;;19.00;99.90;;;;;;5030505;28;20485;-81
2021/06/11 00:43:44;;;;;;;9.53;7.53;;;19.00;99.90;;;;;;5030579;28;20424;-80
2021/06/11 00:46:10;;;;;;;8.53;7.60;;;18.90;99.90;;;;;;5031471;28;20250;-80
2021/06/11 00:48:38;;;;;;;9.37;8.10;;;18.90;99.90;;;;;;5035694;28;20763;-81
2021/06/11 00:51:08;;;;;;;10.70;7.73;;;18.80;99.90;;;;;;5014507;28;20443;-81
2021/06/11 00:53:36;;;;;;;8.17;7.50;;;18.80;99.90;;;;;;5026598;28;20431;-80
2021/06/11 00:56:02;;;;;;;8.07;7.23;;;18.80;99.90;;;;;;5027530;28;20435;-80
2021/06/11 00:58:32;;;;;;;10.00;7.63;;;18.80;99.90;;;;;;5035480;28;20518;-80
2021/06/11 01:01:00;;;;;;;9.37;7.77;;;18.70;99.90;;;;;;5033787;28;20466;-81
2021/06/11 01:03:28;;;;;;;9.53;8.50;;;18.70;99.90;;;;;;5034689;28;20440;-81
2021/06/11 01:05:54;;;;;;;8.77;8.00;;;18.60;99.90;;;;;;5034979;28;20496;-81
2021/06/11 01:08:21;;;;;;;9.80;8.90;;;18.60;99.90;;;;;;5035336;28;20470;-80
2021/06/11 01:10:48;;;;;;;10.63;8.73;;;18.50;99.90;;;;;;5034042;28;20430;-80
2021/06/11 01:13:18;;;;;;;11.07;9.63;;;18.50;99.90;;;;;;5035368;28;20446;-81
2021/06/11 01:15:48;;;;;;;10.37;9.20;;;18.50;99.90;;;;;;5034962;28;20439;-80
2021/06/11 01:18:14;;;;;;;9.90;8.83;;;18.50;99.90;;;;;;5035218;28;20463;-80
2021/06/11 01:20:41;;;;;;;9.53;8.73;;;18.40;99.90;;;;;;5049854;28;20498;-81
2021/06/11 01:23:40;;;;;;;9.70;8.50;;;18.40;99.90;;;;;;5034981;28;20443;-80
2021/06/11 01:26:23;;;;;;;8.73;7.93;;;18.30;99.90;;;;;;5031569;28;20460;-81
2021/06/11 01:28:58;;;;;;;9.70;8.80;;;18.30;99.90;;;;;;5032333;28;20478;-80
2021/06/11 01:31:27;;;;;;;10.37;9.37;;;18.30;99.90;;;;;;5031607;28;20501;-80
2021/06/11 01:34:01;;;;;;;9.20;8.30;;;18.30;99.90;;;;;;5034158;28;20442;-80
2021/06/11 01:36:36;;;;;;;9.27;8.30;;;18.30;99.90;;;;;;5034066;28;20461;-80
2021/06/11 01:39:05;;;;;;;8.37;7.57;;;18.40;99.90;;;;;;5029578;28;20443;-81
2021/06/11 01:41:37;;;;;;;9.03;8.07;;;18.40;99.90;;;;;;5041444;28;20470;-81
2021/06/11 01:44:06;;;;;;;8.50;7.70;;;18.30;99.90;;;;;;5017952;28;20434;-80
2021/06/11 01:46:34;;;;;;;8.93;8.07;;;18.30;99.90;;;;;;5024136;28;20438;-80
2021/06/11 01:49:05;;;;;;;7.87;7.27;;;18.30;99.90;;;;;;5017202;28;20450;-80
2021/06/11 01:51:36;;;;;;;9.10;8.20;;;18.30;99.90;;;;;;5036933;28;20517;-80
2021/06/11 01:54:04;;;;;;;8.97;8.17;;;18.20;99.90;;;;;;5039712;28;20425;-80
2021/06/11 01:56:34;;;;;;;8.73;7.83;;;18.10;99.90;;;;;;5020944;28;20470;-81
2021/06/11 01:59:03;;;;;;;8.13;7.53;;;18.10;99.90;;;;;;5027010;28;20860;-80
2021/06/11 02:01:31;;;;;;;9.10;8.30;;;18.10;99.90;;;;;;5034498;28;20423;-81
2021/06/11 02:03:58;;;;;;;9.50;8.57;;;18.10;99.90;;;;;;5017051;28;20419;-80
2021/06/11 02:06:24;;;;;;;8.60;7.87;;;18.10;99.90;;;;;;5020068;28;20931;-80
2021/06/11 02:08:52;;;;;;;8.93;8.13;;;18.10;99.90;;;;;;5021666;28;20454;-80
2021/06/11 02:11:19;;;;;;;8.63;7.73;;;18.10;99.90;;;;;;5034765;28;20486;-80
2021/06/11 02:13:50;;;;;;;7.83;6.97;;;18.10;99.90;;;;;;5032921;28;20443;-80
2021/06/11 02:16:23;;;;;;;6.93;6.30;;;18.00;99.90;;;;;;5033861;28;20439;-80
2021/06/11 02:18:49;;;;;;;8.20;7.40;;;18.00;99.90;;;;;;5036818;28;20431;-81
2021/06/11 02:21:18;;;;;;;9.27;7.23;;;18.00;99.90;;;;;;5047553;28;20451;-80
2021/06/11 02:23:46;;;;;;;8.73;7.80;;;18.00;99.90;;;;;;5038892;28;20443;-81
2021/06/11 02:26:14;;;;;;;7.30;6.40;;;18.00;99.90;;;;;;5033698;28;20509;-81
2021/06/11 02:28:43;;;;;;;8.27;7.03;;;18.00;99.90;;;;;;5043860;28;20438;-80
2021/06/11 02:31:15;;;;;;;10.93;7.27;;;17.90;99.90;;;;;;5036623;28;20441;-81
2021/06/11 02:33:43;;;;;;;10.50;7.90;;;17.90;99.90;;;;;;5032847;28;20477;-80
2021/06/11 02:36:09;;;;;;;11.20;7.07;;;17.80;99.90;;;;;;5002556;28;20436;-80
2021/06/11 02:38:35;;;;;;;8.53;7.57;;;17.90;99.90;;;;;;5017131;28;20516;-81
2021/06/11 02:41:02;;;;;;;12.17;8.13;;;17.90;99.90;;;;;;5038367;28;20980;-80
2021/06/11 02:43:29;;;;;;;12.20;7.90;;;17.80;99.90;;;;;;5040554;28;20875;-80
2021/06/11 02:46:24;;;;;;;8.43;7.60;;;17.80;99.90;;;;;;5021282;28;20746;-81
2021/06/11 02:48:56;;;;;;;12.10;7.70;;;17.70;99.90;;;;;;5040649;28;20448;-80
2021/06/11 02:51:31;;;;;;;9.00;8.10;;;17.70;99.90;;;;;;5011586;28;20438;-80
2021/06/11 02:53:59;;;;;;;7.47;6.87;;;17.60;99.90;;;;;;5037897;28;20429;-81
2021/06/11 02:56:39;;;;;;;8.53;7.67;;;17.50;99.90;;;;;;5030823;28;20455;-80
2021/06/11 02:59:10;;;;;;;7.77;7.17;;;17.40;99.90;;;;;;5026727;28;20437;-80
2021/06/11 03:01:44;;;;;;;7.87;7.20;;;17.30;99.90;;;;;;5041562;28;20434;-80
2021/06/11 03:04:15;;;;;;;8.90;7.57;;;17.20;99.90;;;;;;5033403;28;20438;-80
2021/06/11 03:06:44;;;;;;;9.20;8.27;;;17.20;99.90;;;;;;5038886;28;20789;-80
2021/06/11 03:09:14;;;;;;;9.43;8.40;;;17.20;99.90;;;;;;5041049;28;20587;-81
2021/06/11 03:11:43;;;;;;;7.80;7.00;;;17.20;99.90;;;;;;5029591;28;20448;-80
2021/06/11 03:14:10;;;;;;;7.53;6.93;;;17.20;99.90;;;;;;5045024;28;20802;-80
2021/06/11 03:16:40;;;;;;;10.40;8.00;;;17.20;99.90;;;;;;5025641;28;20470;-80
2021/06/11 03:19:09;;;;;;;8.23;7.40;;;17.20;99.90;;;;;;5033455;28;20450;-80
2021/06/11 03:21:43;;;;;;;7.90;7.20;;;17.30;99.90;;;;;;5037588;28;20437;-80
2021/06/11 03:24:16;;;;;;;8.00;7.20;;;17.20;99.90;;;;;;4993745;28;20435;-80
2021/06/11 03:26:58;;;;;;;12.80;7.93;;;17.30;99.90;;;;;;5033392;28;21358;-80
2021/06/11 03:29:37;;;;;;;14.07;8.10;;;17.30;99.90;;;;;;5047910;28;20438;-82
2021/06/11 03:32:10;;;;;;;8.60;7.73;;;17.20;99.90;;;;;;5050819;28;20526;-79
2021/06/11 03:34:41;;;;;;;11.33;7.57;;;17.20;99.90;;;;;;5023125;28;20468;-79
2021/06/11 03:37:12;;;;;;;7.90;7.20;;;17.10;99.90;;;;;;5027210;28;20952;-79
2021/06/11 03:39:59;;;;;;;8.90;7.73;;;17.10;99.90;;;;;;5032351;28;20445;-79
2021/06/11 03:42:30;;;;;;;7.60;7.00;;;17.10;99.90;;;;;;5037104;28;20476;-79
2021/06/11 03:45:00;;;;;;;10.10;7.93;;;17.10;99.90;;;;;;5044531;28;20895;-79
2021/06/11 03:47:32;;;;;;;8.63;7.00;;;17.10;99.90;;;;;;5034520;28;20830;-80
2021/06/11 03:50:00;;;;;;;8.13;7.43;;;17.00;99.90;;;;;;5033210;28;20920;-80
2021/06/11 03:52:30;;;;;;;7.87;7.10;;;17.00;99.90;;;;;;5009907;28;20452;-80
2021/06/11 03:55:09;;;;;;;10.90;7.90;;;17.00;99.90;;;;;;4997873;28;20810;-80
2021/06/11 03:57:41;;;;;;;8.23;7.30;;;17.10;99.90;;;;;;5039831;28;20794;-79
2021/06/11 04:00:11;;;;;;;10.20;7.80;;;17.20;99.90;;;;;;5014290;28;20768;-79
2021/06/11 04:02:38;;;;;;;8.10;7.40;;;17.20;99.90;;;;;;5029107;28;21000;-80
2021/06/11 04:05:07;;;;;;;8.80;8.00;;;17.30;99.90;;;;;;5038180;28;20832;-80
2021/06/11 04:07:51;;;;;;;8.27;7.57;;;17.30;99.90;;;;;;5024104;28;20464;-80
2021/06/11 04:10:34;;;;;;;8.63;7.80;;;17.40;99.90;;;;;;5027171;28;20522;-79
2021/06/11 04:13:10;;;;;;;10.63;8.10;;;17.40;99.90;;;;;;5040457;28;20841;-79
2021/06/11 04:15:37;;;;;;;8.80;7.80;;;17.40;99.90;;;;;;5024897;28;20501;-80
2021/06/11 04:18:11;;;;;;;10.50;8.40;;;17.40;99.90;;;;;;5033637;28;20512;-80
2021/06/11 04:20:40;;;;;;;12.77;8.50;;;17.50;99.90;;;;;;5035074;28;20475;-80
2021/06/11 04:23:07;;;;;;;10.27;8.30;;;17.60;99.90;;;;;;5043872;28;20437;-79
2021/06/11 04:25:35;;;;;;;9.70;8.30;;;17.60;99.90;;;;;;5024413;28;20819;-82
2021/06/11 04:28:06;;;;;;;12.67;8.93;;;17.70;99.90;;;;;;5036475;28;20450;-82
2021/06/11 04:30:34;;;;;;;8.80;8.00;;;17.70;99.90;;;;;;5013757;28;20493;-82
2021/06/11 04:33:00;;;;;;;9.17;8.27;;;17.80;99.90;;;;;;5002744;28;20810;-82
2021/06/11 04:35:35;;;;;;;8.73;7.80;;;17.90;99.90;;;;;;4997638;28;20486;-82
2021/06/11 04:38:01;;;;;;;8.40;7.60;;;17.90;99.90;;;;;;5018128;28;20514;-82
2021/06/11 04:40:27;;;;;;;8.07;7.37;;;18.00;99.90;;;;;;5009972;28;242119;-82
2021/06/11 04:42:54;;;;;;;11.07;8.23;;;18.10;99.90;;;;;;5004218;28;20432;-82
2021/06/11 04:45:20;;;;;;;9.47;8.57;;;18.00;99.90;;;;;;5016620;28;21121;-82
2021/06/11 04:47:50;;;;;;;8.70;7.80;;;18.00;99.90;;;;;;5026263;28;21037;-82
2021/06/11 04:50:16;;;;;;;9.80;8.23;;;18.10;99.90;;;;;;5030668;28;20450;-82
2021/06/11 04:52:42;;;;;;;9.60;8.33;;;18.10;99.90;;;;;;5041378;28;20437;-82
2021/06/11 04:55:13;;;;;;;9.03;7.93;;;18.10;99.90;;;;;;5035750;28;20460;-81
2021/06/11 04:57:42;;;;;;;13.30;8.20;;;18.20;99.90;;;;;;5031109;28;20466;-81
2021/06/11 05:00:10;;;;;;;8.43;7.50;;;18.30;99.90;;;;;;5011204;28;21086;-81
2021/06/11 05:02:37;;;;;;;11.93;9.07;;;18.30;99.90;;;;;;5027005;28;20495;-81
2021/06/11 05:05:03;;;;;;;9.77;7.70;;;18.40;99.90;;;;;;5024253;28;20477;-81
2021/06/11 05:07:29;;;;;;;12.07;8.87;;;18.50;99.90;;;;;;5037614;28;20438;-81
2021/06/11 05:09:55;;;;;;;10.97;9.27;;;18.50;99.90;;;;;;5031457;28;20432;-82
2021/06/11 05:12:21;;;;;;;12.90;9.70;;;18.60;99.90;;;;;;5034480;28;20485;-80
2021/06/11 05:14:50;;;;;;;12.00;10.80;;;18.80;99.90;;;;;;5017867;28;20431;-81
2021/06/11 05:17:16;;;;;;;12.67;11.37;;;18.80;99.90;;;;;;5019488;28;20465;-81
2021/06/11 05:19:42;;;;;;;14.10;11.57;;;18.90;99.90;;;;;;5024253;28;20429;-81
2021/06/11 05:22:15;;;;;;;16.83;12.43;;;19.00;99.90;;;;;;5025202;28;20455;-81
2021/06/11 05:24:41;;;;;;;15.13;12.17;;;19.10;99.90;;;;;;5022531;28;20454;-81
2021/06/11 05:27:08;;;;;;;14.53;12.57;;;19.20;99.90;;;;;;5032005;28;20452;-81
2021/06/11 05:29:34;;;;;;;14.70;13.40;;;19.20;99.90;;;;;;5044365;28;20452;-81
2021/06/11 05:32:00;;;;;;;16.00;12.80;;;19.30;99.90;;;;;;5031765;28;20463;-81
2021/06/11 05:34:26;;;;;;;18.13;12.87;;;19.40;99.90;;;;;;5004796;28;20446;-81
2021/06/11 05:36:52;;;;;;;14.90;12.43;;;19.50;99.90;;;;;;5024980;28;20466;-81
2021/06/11 05:39:20;;;;;;;17.03;13.70;;;19.60;99.90;;;;;;5023862;28;20464;-81
2021/06/11 05:41:46;;;;;;;15.70;14.17;;;19.70;99.90;;;;;;5020992;28;20792;-81
2021/06/11 05:44:12;;;;;;;14.60;13.10;;;19.70;99.90;;;;;;5029315;28;20431;-81
2021/06/11 05:46:39;;;;;;;16.20;14.50;;;19.80;99.90;;;;;;5016446;28;20463;-80
2021/06/11 05:49:07;;;;;;;16.30;14.27;;;19.90;99.90;;;;;;5022230;28;20440;-80
2021/06/11 05:51:33;;;;;;;16.57;14.77;;;19.90;99.90;;;;;;5023668;28;20462;-81
2021/06/11 05:54:00;;;;;;;15.37;13.73;;;20.00;99.90;;;;;;5023625;28;20765;-85
2021/06/11 05:56:28;;;;;;;16.40;14.80;;;20.10;99.90;;;;;;5026254;28;20473;-80
2021/06/11 05:58:56;;;;;;;18.90;14.17;;;20.10;99.90;;;;;;5035905;28;20912;-80
2021/06/11 06:01:22;;;;;;;16.20;14.60;;;20.10;99.90;;;;;;5041955;28;20444;-80
2021/06/11 06:03:52;;;;;;;18.17;15.03;;;20.20;99.90;;;;;;5024097;28;20443;-80
2021/06/11 06:06:18;;;;;;;16.83;15.07;;;20.30;99.90;;;;;;5016820;28;20430;-80
2021/06/11 06:08:49;;;;;;;15.83;14.23;;;20.30;99.90;;;;;;5040350;28;20422;-83
2021/06/11 06:11:15;;;;;;;18.47;16.57;;;20.30;99.90;;;;;;5013130;28;20443;-82
2021/06/11 06:13:42;;;;;;;19.53;16.00;;;20.40;99.90;;;;;;5026404;28;20443;-83
2021/06/11 06:16:13;;;;;;;19.33;16.10;;;20.40;99.90;;;;;;5024749;28;20436;-83
2021/06/11 06:18:39;;;;;;;19.27;15.97;;;20.50;99.90;;;;;;5008705;28;20460;-82
2021/06/11 06:21:05;;;;;;;22.37;15.87;;;20.60;99.90;;;;;;5019248;28;20456;-82
2021/06/11 06:23:32;;;;;;;20.70;16.67;;;20.70;99.90;;;;;;5027212;28;20506;-82
2021/06/11 06:25:58;;;;;;;18.30;16.40;;;20.70;99.90;;;;;;5003796;28;20446;-82
2021/06/11 06:28:26;;;;;;;19.00;17.10;;;20.70;99.90;;;;;;5008690;28;20449;-82
2021/06/11 06:39:55;;;;;;;18.33;15.70;;;21.00;99.90;;;;;;5032760;22;20868;-73
2021/06/11 06:42:23;;;;;;;20.13;17.00;;;21.20;99.90;;;;;;5006708;28;20463;-73
2021/06/11 06:44:50;;;;;;;17.50;15.70;;;21.20;99.90;;;;;;4994075;28;20465;-73
2021/06/11 06:47:16;;;;;;;18.10;16.10;;;21.20;99.90;;;;;;5024301;28;20492;-75
2021/06/11 06:49:45;;;;;;;19.20;17.20;;;21.30;99.90;;;;;;5001482;28;20797;-73
2021/06/11 06:52:16;;;;;;;20.70;16.13;;;21.30;99.90;;;;;;4996426;28;20900;-73
2021/06/11 06:54:46;;;;;;;21.30;18.17;;;21.30;99.90;;;;;;5005333;28;20446;-73
2021/06/11 06:57:20;;;;;;;19.27;16.70;;;21.30;99.90;;;;;;5007858;28;20568;-73
2021/06/11 06:59:47;;;;;;;24.07;17.87;;;21.40;99.90;;;;;;5021456;28;20431;-73
2021/06/11 07:02:13;;;;;;;19.30;17.20;;;21.50;99.90;;;;;;4976334;28;20495;-73
2021/06/11 07:04:39;;;;;;;22.00;18.93;;;21.60;99.90;;;;;;5004567;28;20451;-72
2021/06/11 07:07:05;;;;;;;22.13;19.53;;;21.70;99.90;;;;;;5021133;28;21097;-71
2021/06/11 07:09:31;;;;;;;22.53;20.07;;;21.70;99.90;;;;;;4988194;28;20775;-73
2021/06/11 07:11:57;;;;;;;20.27;18.27;;;21.80;99.90;;;;;;4981139;28;20684;-72
2021/06/11 07:14:23;;;;;;;29.03;20.60;;;21.90;99.90;;;;;;5004297;28;20951;-73
2021/06/11 07:16:49;;;;;;;24.13;19.07;;;22.00;99.90;;;;;;5005244;28;20500;-77
2021/06/11 07:19:15;;;;;;;22.17;19.20;;;22.00;99.90;;;;;;5008319;28;20485;-73
2021/06/11 07:21:42;;;;;;;22.07;19.67;;;22.10;99.90;;;;;;4970259;28;20485;-72
2021/06/11 07:24:08;;;;;;;23.03;19.97;;;22.20;99.90;;;;;;5023588;28;20443;-73
2021/06/11 07:26:35;;;;;;;20.67;18.60;;;22.30;99.90;;;;;;5006773;28;20489;-74
2021/06/11 07:29:01;;;;;;;26.77;19.20;;;22.30;99.90;;;;;;5006078;28;20462;-74
2021/06/11 07:31:28;;;;;;;22.10;19.90;;;22.50;99.90;;;;;;4978019;28;20776;-77
2021/06/11 07:33:54;;;;;;;20.70;18.60;;;22.60;99.90;;;;;;5000228;28;20442;-73
2021/06/11 07:36:20;;;;;;;20.90;18.70;;;22.70;99.90;;;;;;4998880;28;20491;-74
2021/06/11 07:38:48;;;;;;;20.57;18.57;;;22.70;99.90;;;;;;5005183;28;21023;-73
2021/06/11 07:41:14;;;;;;;18.70;16.90;;;22.80;99.90;;;;;;4993815;28;20463;-73
2021/06/11 07:43:41;;;;;;;24.30;19.20;;;22.80;99.90;;;;;;4984501;28;20426;-73
2021/06/11 07:46:07;;;;;;;21.03;18.97;;;22.90;99.90;;;;;;5006719;28;20442;-74
2021/06/11 07:48:33;;;;;;;19.43;17.43;;;23.00;99.90;;;;;;4990893;28;20445;-74
2021/06/11 07:51:01;;;;;;;20.67;18.63;;;23.10;99.90;;;;;;5018966;28;20459;-73
2021/06/11 07:53:29;;;;;;;18.83;16.97;;;23.10;99.90;;;;;;5006192;28;20854;-73
2021/06/11 07:55:57;;;;;;;19.03;16.67;;;23.20;99.90;;;;;;5002987;28;20843;-73
2021/06/11 07:58:23;;;;;;;20.30;18.30;;;23.30;99.90;;;;;;5018527;28;20521;-73
2021/06/11 08:00:49;;;;;;;21.10;17.30;;;23.30;99.90;;;;;;5022824;28;20940;-72
2021/06/11 08:03:15;;;;;;;19.60;17.53;;;23.30;99.90;;;;;;4989149;28;20472;-72
2021/06/11 08:05:41;;;;;;;21.23;18.63;;;23.40;99.90;;;;;;5022329;28;20443;-73
2021/06/11 08:08:08;;;;;;;18.07;16.37;;;23.40;99.90;;;;;;5015420;28;20436;-73
2021/06/11 08:10:39;;;;;;;18.03;16.30;;;23.50;99.90;;;;;;4989002;28;20439;-73
2021/06/11 08:13:06;;;;;;;17.00;15.13;;;23.70;99.90;;;;;;5001408;28;21009;-72
2021/06/11 08:15:32;;;;;;;19.23;17.33;;;23.90;99.90;;;;;;5022182;28;20970;-73
2021/06/11 08:17:58;;;;;;;17.47;15.83;;;23.80;99.90;;;;;;4974837;28;20724;-74
2021/06/11 08:20:24;;;;;;;15.90;14.43;;;23.90;99.90;;;;;;5013130;28;20435;-73
2021/06/11 08:22:50;;;;;;;18.63;16.90;;;24.00;99.90;;;;;;5013251;28;20479;-72
2021/06/11 08:25:16;;;;;;;20.70;17.70;;;24.20;99.90;;;;;;4986713;28;20470;-73
2021/06/11 08:27:44;;;;;;;18.60;16.93;;;24.30;99.90;;;;;;4979834;28;20447;-72
2021/06/11 08:30:13;;;;;;;20.37;18.47;;;24.20;99.90;;;;;;5018355;28;20432;-72
2021/06/11 08:32:40;;;;;;;17.23;15.60;;;24.20;99.90;;;;;;5009034;28;20460;-72
2021/06/11 08:35:10;;;;;;;19.50;17.70;;;24.30;99.90;;;;;;5003018;28;20797;-72
2021/06/11 08:37:40;;;;;;;19.83;18.03;;;24.40;99.90;;;;;;4989750;28;20467;-73
2021/06/11 08:40:07;;;;;;;18.83;17.03;;;24.40;99.90;;;;;;5010668;28;20862;-72
2021/06/11 08:42:33;;;;;;;20.30;18.33;;;24.50;99.90;;;;;;5014273;28;20458;-73
2021/06/11 08:45:07;;;;;;;20.00;18.20;;;24.30;99.90;;;;;;5008739;28;20514;-72
2021/06/11 08:47:36;;;;;;;18.93;17.13;;;24.30;99.90;;;;;;5005210;28;20426;-72
2021/06/11 08:50:06;;;;;;;20.47;18.43;;;24.30;99.90;;;;;;5010334;28;21798;-72
2021/06/11 08:52:32;;;;;;;19.93;18.03;;;24.40;99.90;;;;;;5015848;28;20434;-72
2021/06/11 08:55:01;;;;;;;17.93;16.13;;;24.40;99.90;;;;;;5030142;28;20648;-72
2021/06/11 08:57:31;;;;;;;18.10;16.50;;;24.50;99.90;;;;;;5013506;28;20470;-72
2021/06/11 08:59:57;;;;;;;17.93;16.33;;;24.60;99.90;;;;;;5030151;28;20509;-72
2021/06/11 09:02:23;;;;;;;17.53;15.93;;;24.50;99.90;;;;;;4995513;28;20454;-72
2021/06/11 09:04:57;;;;;;;20.20;18.20;;;24.50;99.90;;;;;;4993999;28;20441;-72
2021/06/11 09:07:34;;;;;;;16.63;15.10;;;24.70;99.90;;;;;;5003760;28;20489;-72
2021/06/11 09:10:07;;;;;;;19.00;17.10;;;24.60;99.90;;;;;;5002053;28;20426;-72
2021/06/11 09:12:41;;;;;;;17.50;15.97;;;24.80;99.90;;;;;;5016351;28;20534;-72
2021/06/11 09:15:15;;;;;;;18.00;16.20;;;24.90;99.90;;;;;;5011191;28;20451;-72
2021/06/11 09:17:50;;;;;;;16.20;14.70;;;25.00;99.90;;;;;;5034241;28;21010;-73
2021/06/11 09:20:40;;;;;;;17.13;15.63;;;25.20;99.90;;;;;;5025513;28;20951;-72
2021/06/11 09:23:08;;;;;;;19.03;16.67;;;25.40;99.90;;;;;;5019861;28;20462;-72
2021/06/11 09:25:45;;;;;;;17.70;15.90;;;25.50;99.60;;;;;;5024384;28;20441;-72
2021/06/11 09:28:13;;;;;;;15.00;13.70;;;25.70;99.00;;;;;;5023427;28;20489;-72
2021/06/11 09:30:51;;;;;;;16.17;14.53;;;25.80;99.20;;;;;;5021244;28;21007;-73
2021/06/11 09:33:19;;;;;;;15.80;14.47;;;25.80;99.40;;;;;;5013382;28;20468;-73
2021/06/11 09:35:56;;;;;;;14.60;13.23;;;25.70;99.90;;;;;;5030401;28;20438;-76
2021/06/11 09:38:26;;;;;;;15.43;12.77;;;25.80;99.10;;;;;;5012274;28;20493;-72
2021/06/11 09:40:59;;;;;;;15.37;13.90;;;26.00;99.10;;;;;;5018625;28;20467;-71
2021/06/11 09:43:34;;;;;;;16.17;14.80;;;26.30;98.20;;;;;;5024826;28;20627;-72
2021/06/11 09:46:09;;;;;;;14.93;13.60;;;26.60;96.80;;;;;;5015364;28;20759;-72
2021/06/11 09:48:48;;;;;;;16.73;15.40;;;26.50;95.60;;;;;;5009102;28;20440;-73
2021/06/11 09:51:23;;;;;;;16.80;15.17;;;26.60;96.10;;;;;;4991436;28;20461;-73
2021/06/11 09:53:58;;;;;;;15.83;14.43;;;26.60;95.50;;;;;;5021117;28;20770;-72
2021/06/11 09:56:28;;;;;;;16.57;15.07;;;26.60;96.00;;;;;;5026896;28;20605;-76
2021/06/11 09:58:57;;;;;;;15.63;14.43;;;26.70;95.40;;;;;;5025677;28;20497;-72
2021/06/11 10:01:26;;;;;;;18.70;17.20;;;26.60;94.70;;;;;;5005556;28;20452;-71
2021/06/11 10:03:58;;;;;;;16.13;14.67;;;26.60;94.30;;;;;;5027795;28;20467;-71
2021/06/11 10:06:27;;;;;;;18.03;16.47;;;26.70;95.10;;;;;;5027228;28;20432;-71
2021/06/11 10:08:53;;;;;;;15.80;14.40;;;26.80;94.10;;;;;;5009776;28;20432;-71
2021/06/11 10:11:25;;;;;;;16.37;15.03;;;26.80;95.00;;;;;;5003556;28;20536;-71
2021/06/11 10:13:53;;;;;;;16.40;14.90;;;26.90;94.90;;;;;;5019827;28;20442;-72
2021/06/11 10:16:20;;;;;;;15.20;14.00;;;27.10;93.90;;;;;;5010847;28;20452;-71
2021/06/11 10:18:48;;;;;;;16.13;14.63;;;27.10;94.00;;;;;;5021131;28;20508;-75
2021/06/11 10:21:14;;;;;;;15.23;13.90;;;27.40;93.60;;;;;;5010544;28;20466;-71
2021/06/11 10:23:44;;;;;;;16.40;15.00;;;27.60;92.60;;;;;;5035044;28;20438;-74
2021/06/11 10:26:11;;;;;;;15.40;14.10;;;27.60;92.60;;;;;;5035226;28;20650;-76
2021/06/11 10:28:49;;;;;;;16.80;15.40;;;27.70;93.30;;;;;;5041292;28;20437;-75
2021/06/11 10:31:18;;;;;;;17.00;15.60;;;27.80;92.50;;;;;;5017236;28;20447;-75
2021/06/11 10:33:44;;;;;;;17.57;15.83;;;28.00;93.30;;;;;;4996807;28;20422;-75
2021/06/11 10:36:30;;;;;;;16.13;14.53;;;27.90;92.90;;;;;;5024514;28;20427;-75
2021/06/11 10:39:09;;;;;;;14.80;13.40;;;27.60;93.70;;;;;;5013496;28;21042;-74
2021/06/11 10:42:17;;;;;;;13.93;12.73;;;27.60;91.90;;;;;;5023154;28;20960;-75
2021/06/11 10:44:50;;;;;;;15.33;14.13;;;27.70;91.70;;;;;;5031306;28;20441;-73
2021/06/11 10:47:16;;;;;;;14.40;13.40;;;27.80;92.90;;;;;;5032055;28;20423;-73
2021/06/11 10:49:57;;;;;;;13.87;12.77;;;28.00;90.40;;;;;;5015472;28;20713;-73
2021/06/11 10:52:53;;;;;;;15.93;14.53;;;28.30;90.60;;;;;;5014631;28;20455;-73
2021/06/11 10:55:19;;;;;;;12.83;11.60;;;28.50;89.40;;;;;;5023930;28;21005;-73
2021/06/11 10:57:58;;;;;;;15.40;12.30;;;28.90;90.60;;;;;;5041860;28;20465;-73
2021/06/11 11:00:34;;;;;;;13.10;11.90;;;29.10;89.80;;;;;;5004985;28;20457;-75
2021/06/11 11:03:06;;;;;;;12.37;11.57;;;29.00;89.00;;;;;;5028605;28;20426;-72
2021/06/11 11:05:37;;;;;;;11.20;10.50;;;28.80;88.50;;;;;;5005503;28;20843;-73
2021/06/11 11:08:06;;;;;;;11.47;10.50;;;28.90;88.20;;;;;;5003112;28;20964;-73
2021/06/11 11:10:36;;;;;;;11.17;10.33;;;29.00;88.60;;;;;;5029669;28;20447;-73
2021/06/11 11:13:03;;;;;;;11.10;10.30;;;29.00;84.30;;;;;;5001082;28;20440;-73
2021/06/11 11:15:52;;;;;;;11.30;10.50;;;29.10;84.10;;;;;;5004581;28;20449;-73
2021/06/11 11:18:39;;;;;;;12.30;11.40;;;29.10;85.70;;;;;;5003020;28;20487;-72
2021/06/11 11:21:35;;;;;;;12.10;11.20;;;29.30;82.80;;;;;;5026972;28;20450;-72
2021/06/11 11:24:07;;;;;;;11.60;10.80;;;29.40;81.40;;;;;;5015021;28;20500;-73
2021/06/11 11:26:40;;;;;;;10.37;9.67;;;29.60;82.10;;;;;;5017223;28;20426;-73
2021/06/11 11:29:10;;;;;;;13.00;11.67;;;29.80;80.70;;;;;;4990741;28;21114;-73
2021/06/11 11:31:37;;;;;;;11.97;11.00;;;29.90;80.20;;;;;;5036460;28;21702;-73
2021/06/11 11:34:03;;;;;;;10.90;10.10;;;29.90;80.70;;;;;;5018277;28;20450;-73
2021/06/11 11:36:31;;;;;;;13.20;11.83;;;30.20;79.80;;;;;;5023488;28;20450;-73
2021/06/11 11:39:00;;;;;;;11.00;10.20;;;30.20;79.20;;;;;;5005320;28;20476;-73
2021/06/11 11:41:28;;;;;;;12.07;11.17;;;30.50;78.80;;;;;;5044088;28;20529;-73
2021/06/11 11:43:54;;;;;;;11.97;11.07;;;30.90;76.70;;;;;;5004228;28;20489;-73
2021/06/11 11:46:21;;;;;;;11.43;10.73;;;31.20;78.10;;;;;;5001825;28;20916;-73
2021/06/11 11:48:47;;;;;;;11.13;10.00;;;31.00;74.90;;;;;;5021781;28;20461;-73
2021/06/11 11:51:13;;;;;;;11.20;10.40;;;30.70;76.00;;;;;;5025683;28;20473;-73
2021/06/11 11:53:40;;;;;;;12.93;11.90;;;30.20;78.20;;;;;;5027263;28;20434;-73
2021/06/11 11:56:06;;;;;;;11.60;10.80;;;29.80;77.30;;;;;;5011705;28;20516;-73
2021/06/11 11:58:35;;;;;;;11.13;10.23;;;29.70;79.50;;;;;;4995166;28;20499;-73
2021/06/11 12:01:04;;;;;;;9.70;8.90;;;30.00;80.30;;;;;;4997622;28;20444;-73
2021/06/11 12:03:30;;;;;;;10.60;9.80;;;30.10;76.30;;;;;;5037966;28;20449;-73
2021/06/11 12:05:59;;;;;;;12.27;11.10;;;30.20;74.10;;;;;;5032395;28;20446;-73
2021/06/11 12:08:41;;;;;;;10.60;9.80;;;30.30;72.60;;;;;;5024237;28;20795;-73
2021/06/11 12:11:07;;;;;;;11.70;10.93;;;30.30;75.50;;;;;;5009502;28;20482;-72
2021/06/11 12:13:34;;;;;;;12.10;11.00;;;30.20;73.20;;;;;;5028860;28;20420;-75
2021/06/11 12:16:03;;;;;;;10.77;10.07;;;30.00;75.70;;;;;;5028670;28;20431;-75
2021/06/11 12:18:29;;;;;;;11.20;10.27;;;29.70;77.60;;;;;;5022346;28;20464;-74
2021/06/11 12:20:57;;;;;;;11.10;10.10;;;29.90;75.70;;;;;;5003009;28;20483;-74
2021/06/11 12:23:23;;;;;;;9.70;8.80;;;30.30;74.20;;;;;;4995354;28;20459;-77
2021/06/11 12:25:52;;;;;;;9.87;8.90;;;30.70;70.60;;;;;;5052397;22;20403;-79
2021/06/11 12:28:20;;;;;;;9.63;8.93;;;31.00;71.90;;;;;;5004194;28;20444;-79
2021/06/11 12:30:47;;;;;;;10.33;9.63;;;31.40;70.30;;;;;;5013057;28;20798;-79
2021/06/11 12:33:16;;;;;;;10.60;10.00;;;31.30;66.40;;;;;;5001013;28;20433;-79
2021/06/11 12:35:42;;;;;;;9.97;9.17;;;31.30;64.50;;;;;;4994483;28;20910;-79
2021/06/11 12:38:10;;;;;;;10.33;9.37;;;30.90;66.20;;;;;;5009332;28;20464;-79
2021/06/11 12:40:38;;;;;;;9.93;9.17;;;30.00;69.10;;;;;;4997770;28;20860;-79
2021/06/11 12:43:06;;;;;;;9.50;8.80;;;29.90;73.50;;;;;;4998533;28;20416;-78
2021/06/11 12:45:35;;;;;;;10.53;9.80;;;30.00;73.20;;;;;;5010142;28;20433;-79
2021/06/11 12:48:03;;;;;;;9.60;8.90;;;30.20;71.50;;;;;;4997709;28;20409;-78
2021/06/11 12:50:29;;;;;;;8.97;8.27;;;30.30;70.10;;;;;;4998664;28;20451;-79
2021/06/11 12:52:58;;;;;;;9.13;8.57;;;30.90;72.00;;;;;;4999672;28;20496;-79
2021/06/11 12:55:26;;;;;;;10.13;9.53;;;31.30;68.90;;;;;;5016098;28;20563;-78
2021/06/11 12:57:52;;;;;;;10.07;9.23;;;31.20;65.30;;;;;;5002106;28;20548;-79